sensor_id;sensor_type;location;lat;lon;timestamp;P1;durP1;ratioP1;P2;durP2;ratioP2
67655;SDS011;54443;51.464;-2.584;2022-07-06T00:01:01;1.98;;;1.55;;
67655;SDS011;54443;51.464;-2.584;2022-07-06T00:03:27;3.47;;;1.80;;
67655;SDS011;54443;51.464;-2.584;2022-07-06T00:05:52;3.70;;;1.70;;
67655;SDS011;54443;51.464;-2.584;2022-07-06T00:08:18;1.98;;;1.70;;
67655;SDS011;54443;51.464;-2.584;2022-07-06T00:10:43;2.03;;;1.83;;
67655;SDS011;54443;51.464;-2.584;2022-07-06T00:13:08;3.95;;;1.95;;
67655;SDS011;54443;51.464;-2.584;2022-07-06T00:15:34;2.45;;;1.75;;
67655;SDS011;54443;51.464;-2.584;2022-07-06T00:17:59;3.00;;;1.85;;
67655;SDS011;54443;51.464;-2.584;2022-07-06T00:20:25;4.28;;;1.90;;
67655;SDS011;54443;51.464;-2.584;2022-07-06T00:22:50;1.83;;;1.42;;
67655;SDS011;54443;51.464;-2.584;2022-07-06T00:25:16;3.25;;;1.77;;
67655;SDS011;54443;51.464;-2.584;2022-07-06T00:27:41;2.35;;;1.85;;
67655;SDS011;54443;51.464;-2.584;2022-07-06T00:30:06;1.60;;;1.50;;
67655;SDS011;54443;51.464;-2.584;2022-07-06T00:32:32;2.17;;;1.50;;
67655;SDS011;54443;51.464;-2.584;2022-07-06T00:34:58;2.22;;;1.60;;
67655;SDS011;54443;51.464;-2.584;2022-07-06T00:37:23;4.35;;;1.95;;
67655;SDS011;54443;51.464;-2.584;2022-07-06T00:39:49;3.53;;;1.50;;
67655;SDS011;54443;51.464;-2.584;2022-07-06T00:42:14;6.53;;;1.92;;
67655;SDS011;54443;51.464;-2.584;2022-07-06T00:44:39;2.00;;;1.80;;
67655;SDS011;54443;51.464;-2.584;2022-07-06T00:47:05;2.38;;;1.60;;
67655;SDS011;54443;51.464;-2.584;2022-07-06T00:49:32;1.88;;;1.65;;
67655;SDS011;54443;51.464;-2.584;2022-07-06T00:52:16;3.08;;;1.50;;
67655;SDS011;54443;51.464;-2.584;2022-07-06T00:54:42;1.60;;;1.50;;
67655;SDS011;54443;51.464;-2.584;2022-07-06T00:57:08;2.03;;;1.65;;
67655;SDS011;54443;51.464;-2.584;2022-07-06T00:59:33;1.88;;;1.42;;
67655;SDS011;54443;51.464;-2.584;2022-07-06T01:01:58;3.17;;;1.75;;
67655;SDS011;54443;51.464;-2.584;2022-07-06T01:04:24;2.00;;;1.80;;
67655;SDS011;54443;51.464;-2.584;2022-07-06T01:06:49;2.00;;;1.63;;
67655;SDS011;54443;51.464;-2.584;2022-07-06T01:09:15;3.63;;;1.40;;
67655;SDS011;54443;51.464;-2.584;2022-07-06T01:11:41;1.70;;;1.48;;
67655;SDS011;54443;51.464;-2.584;2022-07-06T01:14:07;2.60;;;1.52;;
67655;SDS011;54443;51.464;-2.584;2022-07-06T01:16:32;1.48;;;1.38;;
67655;SDS011;54443;51.464;-2.584;2022-07-06T01:18:57;1.60;;;1.50;;
67655;SDS011;54443;51.464;-2.584;2022-07-06T01:21:23;2.40;;;1.55;;
67655;SDS011;54443;51.464;-2.584;2022-07-06T01:23:48;2.65;;;1.58;;
67655;SDS011;54443;51.464;-2.584;2022-07-06T01:26:18;1.45;;;1.35;;
67655;SDS011;54443;51.464;-2.584;2022-07-06T01:28:45;3.72;;;1.48;;
67655;SDS011;54443;51.464;-2.584;2022-07-06T01:31:14;2.03;;;1.42;;
67655;SDS011;54443;51.464;-2.584;2022-07-06T01:33:43;1.42;;;1.33;;
67655;SDS011;54443;51.464;-2.584;2022-07-06T01:36:09;2.58;;;1.40;;
67655;SDS011;54443;51.464;-2.584;2022-07-06T01:38:44;1.55;;;1.30;;
67655;SDS011;54443;51.464;-2.584;2022-07-06T01:41:20;5.53;;;2.55;;
67655;SDS011;54443;51.464;-2.584;2022-07-06T01:43:46;1.42;;;1.33;;
67655;SDS011;54443;51.464;-2.584;2022-07-06T01:46:12;1.50;;;1.40;;
67655;SDS011;54443;51.464;-2.584;2022-07-06T01:48:38;2.78;;;1.60;;
67655;SDS011;54443;51.464;-2.584;2022-07-06T01:51:03;1.60;;;1.50;;
67655;SDS011;54443;51.464;-2.584;2022-07-06T01:53:29;2.17;;;1.40;;
67655;SDS011;54443;51.464;-2.584;2022-07-06T01:55:55;2.40;;;1.60;;
67655;SDS011;54443;51.464;-2.584;2022-07-06T01:58:21;2.50;;;2.05;;
67655;SDS011;54443;51.464;-2.584;2022-07-06T02:00:47;3.33;;;2.13;;
67655;SDS011;54443;51.464;-2.584;2022-07-06T02:03:12;2.47;;;1.58;;
67655;SDS011;54443;51.464;-2.584;2022-07-06T02:05:37;1.63;;;1.50;;
67655;SDS011;54443;51.464;-2.584;2022-07-06T02:08:03;2.45;;;1.67;;
67655;SDS011;54443;51.464;-2.584;2022-07-06T02:10:28;1.60;;;1.50;;
67655;SDS011;54443;51.464;-2.584;2022-07-06T02:12:54;2.30;;;1.70;;
67655;SDS011;54443;51.464;-2.584;2022-07-06T02:15:19;1.60;;;1.50;;
67655;SDS011;54443;51.464;-2.584;2022-07-06T02:17:44;2.70;;;1.80;;
67655;SDS011;54443;51.464;-2.584;2022-07-06T02:20:10;4.40;;;2.17;;
67655;SDS011;54443;51.464;-2.584;2022-07-06T02:22:35;4.07;;;2.20;;
67655;SDS011;54443;51.464;-2.584;2022-07-06T02:25:01;2.22;;;2.03;;
67655;SDS011;54443;51.464;-2.584;2022-07-06T02:27:26;3.53;;;2.90;;
67655;SDS011;54443;51.464;-2.584;2022-07-06T02:29:52;2.83;;;2.47;;
67655;SDS011;54443;51.464;-2.584;2022-07-06T02:32:17;2.83;;;2.58;;
67655;SDS011;54443;51.464;-2.584;2022-07-06T02:34:43;2.47;;;1.90;;
67655;SDS011;54443;51.464;-2.584;2022-07-06T02:37:08;3.47;;;1.83;;
67655;SDS011;54443;51.464;-2.584;2022-07-06T02:39:34;3.38;;;1.88;;
67655;SDS011;54443;51.464;-2.584;2022-07-06T02:42:00;1.92;;;1.80;;
67655;SDS011;54443;51.464;-2.584;2022-07-06T02:44:25;4.97;;;4.05;;
67655;SDS011;54443;51.464;-2.584;2022-07-06T02:46:50;6.85;;;4.22;;
67655;SDS011;54443;51.464;-2.584;2022-07-06T02:49:16;3.53;;;2.10;;
67655;SDS011;54443;51.464;-2.584;2022-07-06T02:51:41;1.70;;;1.60;;
67655;SDS011;54443;51.464;-2.584;2022-07-06T02:54:06;1.60;;;1.50;;
67655;SDS011;54443;51.464;-2.584;2022-07-06T02:56:32;1.92;;;1.65;;
67655;SDS011;54443;51.464;-2.584;2022-07-06T02:58:57;1.58;;;1.48;;
67655;SDS011;54443;51.464;-2.584;2022-07-06T03:01:23;3.60;;;1.55;;
67655;SDS011;54443;51.464;-2.584;2022-07-06T03:03:48;1.88;;;1.55;;
67655;SDS011;54443;51.464;-2.584;2022-07-06T03:06:13;3.60;;;1.42;;
67655;SDS011;54443;51.464;-2.584;2022-07-06T03:08:39;1.95;;;1.52;;
67655;SDS011;54443;51.464;-2.584;2022-07-06T03:11:04;1.65;;;1.55;;
67655;SDS011;54443;51.464;-2.584;2022-07-06T03:13:30;2.08;;;1.45;;
67655;SDS011;54443;51.464;-2.584;2022-07-06T03:15:55;1.77;;;1.60;;
67655;SDS011;54443;51.464;-2.584;2022-07-06T03:18:21;2.30;;;1.63;;
67655;SDS011;54443;51.464;-2.584;2022-07-06T03:20:46;2.15;;;1.80;;
67655;SDS011;54443;51.464;-2.584;2022-07-06T03:23:11;6.43;;;1.60;;
67655;SDS011;54443;51.464;-2.584;2022-07-06T03:25:37;4.75;;;1.70;;
67655;SDS011;54443;51.464;-2.584;2022-07-06T03:28:02;2.17;;;1.48;;
67655;SDS011;54443;51.464;-2.584;2022-07-06T03:30:28;1.80;;;1.48;;
67655;SDS011;54443;51.464;-2.584;2022-07-06T03:32:53;2.13;;;1.33;;
67655;SDS011;54443;51.464;-2.584;2022-07-06T03:35:19;1.45;;;1.35;;
67655;SDS011;54443;51.464;-2.584;2022-07-06T03:37:44;1.95;;;1.50;;
67655;SDS011;54443;51.464;-2.584;2022-07-06T03:40:10;2.70;;;2.00;;
67655;SDS011;54443;51.464;-2.584;2022-07-06T03:42:36;3.05;;;1.60;;
67655;SDS011;54443;51.464;-2.584;2022-07-06T03:45:02;1.80;;;1.65;;
67655;SDS011;54443;51.464;-2.584;2022-07-06T03:47:31;1.73;;;1.63;;
67655;SDS011;54443;51.464;-2.584;2022-07-06T03:49:57;1.92;;;1.55;;
67655;SDS011;54443;51.464;-2.584;2022-07-06T03:52:22;3.85;;;1.52;;
67655;SDS011;54443;51.464;-2.584;2022-07-06T03:54:47;3.15;;;1.50;;
67655;SDS011;54443;51.464;-2.584;2022-07-06T03:57:13;1.92;;;1.83;;
67655;SDS011;54443;51.464;-2.584;2022-07-06T03:59:39;3.85;;;2.10;;
67655;SDS011;54443;51.464;-2.584;2022-07-06T04:02:05;2.72;;;2.33;;
67655;SDS011;54443;51.464;-2.584;2022-07-06T04:04:30;2.58;;;2.35;;
67655;SDS011;54443;51.464;-2.584;2022-07-06T04:06:56;6.90;;;2.70;;
67655;SDS011;54443;51.464;-2.584;2022-07-06T04:09:21;2.20;;;2.00;;
67655;SDS011;54443;51.464;-2.584;2022-07-06T04:11:47;1.77;;;1.67;;
67655;SDS011;54443;51.464;-2.584;2022-07-06T04:14:12;2.40;;;1.90;;
67655;SDS011;54443;51.464;-2.584;2022-07-06T04:16:38;2.22;;;1.70;;
67655;SDS011;54443;51.464;-2.584;2022-07-06T04:19:03;2.45;;;1.67;;
67655;SDS011;54443;51.464;-2.584;2022-07-06T04:21:28;6.85;;;1.85;;
67655;SDS011;54443;51.464;-2.584;2022-07-06T04:23:54;2.15;;;1.80;;
67655;SDS011;54443;51.464;-2.584;2022-07-06T04:26:19;2.10;;;1.90;;
67655;SDS011;54443;51.464;-2.584;2022-07-06T04:28:45;3.92;;;1.73;;
67655;SDS011;54443;51.464;-2.584;2022-07-06T04:31:10;2.38;;;1.85;;
67655;SDS011;54443;51.464;-2.584;2022-07-06T04:33:35;3.13;;;1.83;;
67655;SDS011;54443;51.464;-2.584;2022-07-06T04:36:01;2.33;;;1.90;;
67655;SDS011;54443;51.464;-2.584;2022-07-06T04:38:26;2.40;;;1.60;;
67655;SDS011;54443;51.464;-2.584;2022-07-06T04:40:52;3.33;;;1.70;;
67655;SDS011;54443;51.464;-2.584;2022-07-06T04:43:17;2.17;;;1.98;;
67655;SDS011;54443;51.464;-2.584;2022-07-06T04:45:42;3.92;;;2.20;;
67655;SDS011;54443;51.464;-2.584;2022-07-06T04:48:08;2.15;;;1.90;;
67655;SDS011;54443;51.464;-2.584;2022-07-06T04:50:33;2.40;;;2.20;;
67655;SDS011;54443;51.464;-2.584;2022-07-06T04:52:59;3.35;;;1.80;;
67655;SDS011;54443;51.464;-2.584;2022-07-06T04:55:24;3.35;;;1.80;;
67655;SDS011;54443;51.464;-2.584;2022-07-06T04:57:50;1.90;;;1.80;;
67655;SDS011;54443;51.464;-2.584;2022-07-06T05:00:17;2.00;;;1.90;;
67655;SDS011;54443;51.464;-2.584;2022-07-06T05:02:42;5.45;;;2.05;;
67655;SDS011;54443;51.464;-2.584;2022-07-06T05:05:08;5.57;;;2.35;;
67655;SDS011;54443;51.464;-2.584;2022-07-06T05:07:35;3.05;;;2.00;;
67655;SDS011;54443;51.464;-2.584;2022-07-06T05:10:04;3.30;;;2.10;;
67655;SDS011;54443;51.464;-2.584;2022-07-06T05:12:31;2.17;;;1.90;;
67655;SDS011;54443;51.464;-2.584;2022-07-06T05:14:56;5.05;;;2.10;;
67655;SDS011;54443;51.464;-2.584;2022-07-06T05:17:22;6.05;;;1.83;;
67655;SDS011;54443;51.464;-2.584;2022-07-06T05:19:47;2.28;;;1.83;;
67655;SDS011;54443;51.464;-2.584;2022-07-06T05:22:13;3.20;;;2.08;;
67655;SDS011;54443;51.464;-2.584;2022-07-06T05:24:38;4.28;;;2.05;;
67655;SDS011;54443;51.464;-2.584;2022-07-06T05:27:04;5.32;;;2.20;;
67655;SDS011;54443;51.464;-2.584;2022-07-06T05:29:29;5.95;;;2.22;;
67655;SDS011;54443;51.464;-2.584;2022-07-06T05:31:55;6.68;;;2.35;;
67655;SDS011;54443;51.464;-2.584;2022-07-06T05:34:20;4.95;;;2.40;;
67655;SDS011;54443;51.464;-2.584;2022-07-06T05:36:46;2.15;;;1.95;;
67655;SDS011;54443;51.464;-2.584;2022-07-06T05:39:11;3.42;;;2.13;;
67655;SDS011;54443;51.464;-2.584;2022-07-06T05:41:36;3.30;;;2.40;;
67655;SDS011;54443;51.464;-2.584;2022-07-06T05:44:02;3.22;;;2.05;;
67655;SDS011;54443;51.464;-2.584;2022-07-06T05:46:27;4.53;;;2.33;;
67655;SDS011;54443;51.464;-2.584;2022-07-06T05:48:53;3.17;;;2.33;;
67655;SDS011;54443;51.464;-2.584;2022-07-06T05:51:37;2.45;;;1.73;;
67655;SDS011;54443;51.464;-2.584;2022-07-06T05:54:02;4.93;;;2.58;;
67655;SDS011;54443;51.464;-2.584;2022-07-06T05:56:28;3.00;;;2.30;;
67655;SDS011;54443;51.464;-2.584;2022-07-06T05:58:53;3.90;;;2.20;;
67655;SDS011;54443;51.464;-2.584;2022-07-06T06:01:19;3.42;;;2.30;;
67655;SDS011;54443;51.464;-2.584;2022-07-06T06:03:44;2.92;;;2.15;;
67655;SDS011;54443;51.464;-2.584;2022-07-06T06:06:10;8.95;;;2.60;;
67655;SDS011;54443;51.464;-2.584;2022-07-06T06:08:35;3.38;;;2.35;;
67655;SDS011;54443;51.464;-2.584;2022-07-06T06:11:00;2.40;;;2.00;;
67655;SDS011;54443;51.464;-2.584;2022-07-06T06:13:26;2.83;;;2.10;;
67655;SDS011;54443;51.464;-2.584;2022-07-06T06:15:51;3.53;;;2.30;;
67655;SDS011;54443;51.464;-2.584;2022-07-06T06:18:16;2.60;;;2.40;;
67655;SDS011;54443;51.464;-2.584;2022-07-06T06:20:44;3.22;;;2.00;;
67655;SDS011;54443;51.464;-2.584;2022-07-06T06:23:10;5.15;;;2.47;;
67655;SDS011;54443;51.464;-2.584;2022-07-06T06:25:38;2.80;;;2.05;;
67655;SDS011;54443;51.464;-2.584;2022-07-06T06:28:05;4.50;;;2.40;;
67655;SDS011;54443;51.464;-2.584;2022-07-06T06:30:32;4.13;;;2.38;;
67655;SDS011;54443;51.464;-2.584;2022-07-06T06:33:07;2.53;;;2.30;;
67655;SDS011;54443;51.464;-2.584;2022-07-06T06:35:34;4.10;;;2.80;;
67655;SDS011;54443;51.464;-2.584;2022-07-06T06:38:00;2.47;;;2.13;;
67655;SDS011;54443;51.464;-2.584;2022-07-06T06:40:25;4.53;;;2.35;;
67655;SDS011;54443;51.464;-2.584;2022-07-06T06:42:51;3.55;;;2.30;;
67655;SDS011;54443;51.464;-2.584;2022-07-06T06:45:16;5.15;;;2.50;;
67655;SDS011;54443;51.464;-2.584;2022-07-06T06:47:41;3.60;;;2.30;;
67655;SDS011;54443;51.464;-2.584;2022-07-06T06:50:07;3.22;;;1.98;;
67655;SDS011;54443;51.464;-2.584;2022-07-06T06:52:32;5.97;;;2.30;;
67655;SDS011;54443;51.464;-2.584;2022-07-06T06:54:58;4.03;;;2.30;;
67655;SDS011;54443;51.464;-2.584;2022-07-06T06:57:24;3.63;;;1.77;;
67655;SDS011;54443;51.464;-2.584;2022-07-06T06:59:50;2.13;;;1.80;;
67655;SDS011;54443;51.464;-2.584;2022-07-06T07:02:15;5.30;;;2.28;;
67655;SDS011;54443;51.464;-2.584;2022-07-06T07:04:41;4.13;;;2.00;;
67655;SDS011;54443;51.464;-2.584;2022-07-06T07:07:06;2.13;;;1.67;;
67655;SDS011;54443;51.464;-2.584;2022-07-06T07:09:31;2.85;;;1.80;;
67655;SDS011;54443;51.464;-2.584;2022-07-06T07:11:57;2.60;;;1.70;;
67655;SDS011;54443;51.464;-2.584;2022-07-06T07:14:22;3.22;;;2.15;;
67655;SDS011;54443;51.464;-2.584;2022-07-06T07:16:48;3.28;;;1.80;;
67655;SDS011;54443;51.464;-2.584;2022-07-06T07:19:13;6.28;;;1.95;;
67655;SDS011;54443;51.464;-2.584;2022-07-06T07:21:39;2.55;;;1.77;;
67655;SDS011;54443;51.464;-2.584;2022-07-06T07:24:04;2.78;;;1.80;;
67655;SDS011;54443;51.464;-2.584;2022-07-06T07:26:30;5.22;;;1.90;;
67655;SDS011;54443;51.464;-2.584;2022-07-06T07:28:55;2.22;;;1.33;;
67655;SDS011;54443;51.464;-2.584;2022-07-06T07:31:21;1.38;;;1.27;;
67655;SDS011;54443;51.464;-2.584;2022-07-06T07:33:46;2.13;;;1.63;;
67655;SDS011;54443;51.464;-2.584;2022-07-06T07:36:12;5.70;;;1.85;;
67655;SDS011;54443;51.464;-2.584;2022-07-06T07:38:37;2.25;;;1.75;;
67655;SDS011;54443;51.464;-2.584;2022-07-06T07:41:02;2.38;;;1.60;;
67655;SDS011;54443;51.464;-2.584;2022-07-06T07:43:28;3.50;;;1.80;;
67655;SDS011;54443;51.464;-2.584;2022-07-06T07:45:54;1.48;;;1.38;;
67655;SDS011;54443;51.464;-2.584;2022-07-06T07:48:19;3.97;;;1.83;;
67655;SDS011;54443;51.464;-2.584;2022-07-06T07:50:45;1.92;;;1.60;;
67655;SDS011;54443;51.464;-2.584;2022-07-06T07:53:10;3.97;;;1.70;;
67655;SDS011;54443;51.464;-2.584;2022-07-06T07:55:35;5.28;;;2.05;;
67655;SDS011;54443;51.464;-2.584;2022-07-06T07:58:01;1.92;;;1.60;;
67655;SDS011;54443;51.464;-2.584;2022-07-06T08:00:26;3.78;;;1.73;;
67655;SDS011;54443;51.464;-2.584;2022-07-06T08:02:53;5.63;;;1.60;;
67655;SDS011;54443;51.464;-2.584;2022-07-06T08:05:19;1.50;;;1.40;;
67655;SDS011;54443;51.464;-2.584;2022-07-06T08:07:45;1.90;;;1.60;;
67655;SDS011;54443;51.464;-2.584;2022-07-06T08:10:10;1.58;;;1.48;;
67655;SDS011;54443;51.464;-2.584;2022-07-06T08:12:36;2.20;;;1.55;;
67655;SDS011;54443;51.464;-2.584;2022-07-06T08:15:02;1.60;;;1.48;;
67655;SDS011;54443;51.464;-2.584;2022-07-06T08:17:28;2.00;;;1.45;;
67655;SDS011;54443;51.464;-2.584;2022-07-06T08:19:53;2.53;;;1.55;;
67655;SDS011;54443;51.464;-2.584;2022-07-06T08:22:19;1.95;;;1.60;;
67655;SDS011;54443;51.464;-2.584;2022-07-06T08:24:44;1.65;;;1.40;;
67655;SDS011;54443;51.464;-2.584;2022-07-06T08:27:09;2.92;;;1.77;;
67655;SDS011;54443;51.464;-2.584;2022-07-06T08:29:35;3.90;;;1.60;;
67655;SDS011;54443;51.464;-2.584;2022-07-06T08:32:00;5.38;;;1.38;;
67655;SDS011;54443;51.464;-2.584;2022-07-06T08:34:26;3.95;;;1.50;;
67655;SDS011;54443;51.464;-2.584;2022-07-06T08:36:51;5.05;;;2.20;;
67655;SDS011;54443;51.464;-2.584;2022-07-06T08:39:17;3.25;;;2.35;;
67655;SDS011;54443;51.464;-2.584;2022-07-06T08:41:42;1.55;;;1.10;;
67655;SDS011;54443;51.464;-2.584;2022-07-06T08:44:13;2.95;;;1.27;;
67655;SDS011;54443;51.464;-2.584;2022-07-06T08:46:42;2.53;;;1.40;;
67655;SDS011;54443;51.464;-2.584;2022-07-06T08:49:08;1.75;;;1.10;;
67655;SDS011;54443;51.464;-2.584;2022-07-06T08:51:37;1.23;;;0.88;;
67655;SDS011;54443;51.464;-2.584;2022-07-06T08:54:04;1.33;;;1.00;;
67655;SDS011;54443;51.464;-2.584;2022-07-06T08:56:29;1.58;;;1.10;;
67655;SDS011;54443;51.464;-2.584;2022-07-06T08:58:55;2.00;;;1.20;;
67655;SDS011;54443;51.464;-2.584;2022-07-06T09:01:21;2.78;;;1.00;;
67655;SDS011;54443;51.464;-2.584;2022-07-06T09:03:47;1.15;;;1.00;;
67655;SDS011;54443;51.464;-2.584;2022-07-06T09:06:16;1.42;;;1.33;;
67655;SDS011;54443;51.464;-2.584;2022-07-06T09:08:42;3.72;;;1.10;;
67655;SDS011;54443;51.464;-2.584;2022-07-06T09:11:08;1.88;;;1.30;;
67655;SDS011;54443;51.464;-2.584;2022-07-06T09:13:34;1.10;;;1.10;;
67655;SDS011;54443;51.464;-2.584;2022-07-06T09:16:12;1.88;;;1.20;;
67655;SDS011;54443;51.464;-2.584;2022-07-06T09:18:39;2.38;;;1.00;;
67655;SDS011;54443;51.464;-2.584;2022-07-06T09:21:07;1.23;;;1.10;;
67655;SDS011;54443;51.464;-2.584;2022-07-06T09:23:33;1.05;;;0.98;;
67655;SDS011;54443;51.464;-2.584;2022-07-06T09:26:01;1.13;;;1.13;;
67655;SDS011;54443;51.464;-2.584;2022-07-06T09:28:43;3.25;;;1.20;;
67655;SDS011;54443;51.464;-2.584;2022-07-06T09:31:09;2.85;;;1.15;;
67655;SDS011;54443;51.464;-2.584;2022-07-06T09:33:35;2.42;;;1.20;;
67655;SDS011;54443;51.464;-2.584;2022-07-06T09:36:01;2.67;;;1.15;;
67655;SDS011;54443;51.464;-2.584;2022-07-06T09:38:27;1.20;;;1.10;;
67655;SDS011;54443;51.464;-2.584;2022-07-06T09:40:53;1.40;;;1.30;;
67655;SDS011;54443;51.464;-2.584;2022-07-06T09:43:20;2.33;;;1.42;;
67655;SDS011;54443;51.464;-2.584;2022-07-06T09:45:56;5.70;;;1.38;;
67655;SDS011;54443;51.464;-2.584;2022-07-06T09:48:27;3.75;;;1.55;;
67655;SDS011;54443;51.464;-2.584;2022-07-06T09:50:53;3.33;;;1.10;;
67655;SDS011;54443;51.464;-2.584;2022-07-06T09:53:20;1.73;;;1.30;;
67655;SDS011;54443;51.464;-2.584;2022-07-06T09:55:47;2.83;;;1.13;;
67655;SDS011;54443;51.464;-2.584;2022-07-06T09:58:15;1.98;;;1.27;;
67655;SDS011;54443;51.464;-2.584;2022-07-06T10:00:44;3.88;;;1.52;;
67655;SDS011;54443;51.464;-2.584;2022-07-06T10:03:10;2.58;;;1.00;;
67655;SDS011;54443;51.464;-2.584;2022-07-06T10:05:37;2.38;;;1.20;;
67655;SDS011;54443;51.464;-2.584;2022-07-06T10:08:03;1.35;;;1.20;;
67655;SDS011;54443;51.464;-2.584;2022-07-06T10:10:31;2.08;;;1.00;;
67655;SDS011;54443;51.464;-2.584;2022-07-06T10:12:57;1.95;;;1.10;;
67655;SDS011;54443;51.464;-2.584;2022-07-06T10:15:27;2.78;;;0.93;;
67655;SDS011;54443;51.464;-2.584;2022-07-06T10:17:53;0.80;;;0.80;;
67655;SDS011;54443;51.464;-2.584;2022-07-06T10:20:20;1.17;;;1.13;;
67655;SDS011;54443;51.464;-2.584;2022-07-06T10:22:49;1.92;;;1.00;;
67655;SDS011;54443;51.464;-2.584;2022-07-06T10:25:16;1.27;;;1.17;;
67655;SDS011;54443;51.464;-2.584;2022-07-06T10:27:42;1.85;;;1.20;;
67655;SDS011;54443;51.464;-2.584;2022-07-06T10:30:08;1.42;;;0.80;;
67655;SDS011;54443;51.464;-2.584;2022-07-06T10:32:34;0.90;;;0.90;;
67655;SDS011;54443;51.464;-2.584;2022-07-06T10:35:01;1.20;;;1.00;;
67655;SDS011;54443;51.464;-2.584;2022-07-06T10:37:26;3.53;;;1.20;;
67655;SDS011;54443;51.464;-2.584;2022-07-06T10:39:52;3.30;;;0.80;;
67655;SDS011;54443;51.464;-2.584;2022-07-06T10:42:47;2.67;;;1.30;;
67655;SDS011;54443;51.464;-2.584;2022-07-06T10:45:20;3.05;;;1.40;;
67655;SDS011;54443;51.464;-2.584;2022-07-06T10:50:36;2.03;;;1.27;;
67655;SDS011;54443;51.464;-2.584;2022-07-06T10:56:03;1.27;;;1.00;;
67655;SDS011;54443;51.464;-2.584;2022-07-06T11:01:10;1.17;;;1.08;;
67655;SDS011;54443;51.464;-2.584;2022-07-06T11:06:18;1.65;;;0.90;;
67655;SDS011;54443;51.464;-2.584;2022-07-06T11:16:33;4.43;;;1.15;;
67655;SDS011;54443;51.464;-2.584;2022-07-06T11:19:26;0.95;;;0.80;;
67655;SDS011;54443;51.464;-2.584;2022-07-06T11:21:58;0.90;;;0.77;;
67655;SDS011;54443;51.464;-2.584;2022-07-06T11:24:31;0.70;;;0.70;;
67655;SDS011;54443;51.464;-2.584;2022-07-06T11:26:58;3.47;;;0.90;;
67655;SDS011;54443;51.464;-2.584;2022-07-06T11:29:25;0.90;;;0.80;;
67655;SDS011;54443;51.464;-2.584;2022-07-06T11:31:55;1.35;;;0.80;;
67655;SDS011;54443;51.464;-2.584;2022-07-06T11:36:57;2.80;;;1.00;;
67655;SDS011;54443;51.464;-2.584;2022-07-06T11:39:27;1.23;;;0.90;;
67655;SDS011;54443;51.464;-2.584;2022-07-06T11:41:56;1.02;;;0.90;;
67655;SDS011;54443;51.464;-2.584;2022-07-06T11:44:22;1.15;;;1.00;;
67655;SDS011;54443;51.464;-2.584;2022-07-06T11:46:48;8.02;;;1.10;;
67655;SDS011;54443;51.464;-2.584;2022-07-06T11:49:13;2.90;;;0.80;;
67655;SDS011;54443;51.464;-2.584;2022-07-06T11:51:39;3.33;;;0.93;;
67655;SDS011;54443;51.464;-2.584;2022-07-06T11:54:09;0.75;;;0.75;;
67655;SDS011;54443;51.464;-2.584;2022-07-06T11:56:37;2.55;;;1.02;;
67655;SDS011;54443;51.464;-2.584;2022-07-06T11:59:02;4.65;;;1.55;;
67655;SDS011;54443;51.464;-2.584;2022-07-06T12:01:29;3.00;;;0.90;;
67655;SDS011;54443;51.464;-2.584;2022-07-06T12:03:58;8.00;;;4.05;;
67655;SDS011;54443;51.464;-2.584;2022-07-06T12:06:25;6.32;;;1.42;;
67655;SDS011;54443;51.464;-2.584;2022-07-06T12:08:52;2.15;;;1.05;;
67655;SDS011;54443;51.464;-2.584;2022-07-06T12:11:19;2.00;;;0.90;;
67655;SDS011;54443;51.464;-2.584;2022-07-06T12:13:45;1.60;;;0.90;;
67655;SDS011;54443;51.464;-2.584;2022-07-06T12:16:11;2.42;;;1.00;;
67655;SDS011;54443;51.464;-2.584;2022-07-06T12:18:38;2.28;;;1.17;;
67655;SDS011;54443;51.464;-2.584;2022-07-06T12:21:06;2.00;;;1.00;;
67655;SDS011;54443;51.464;-2.584;2022-07-06T12:23:43;5.63;;;1.13;;
67655;SDS011;54443;51.464;-2.584;2022-07-06T12:26:10;2.40;;;0.98;;
67655;SDS011;54443;51.464;-2.584;2022-07-06T12:28:36;1.40;;;0.90;;
67655;SDS011;54443;51.464;-2.584;2022-07-06T12:31:02;1.65;;;1.10;;
67655;SDS011;54443;51.464;-2.584;2022-07-06T12:33:27;2.95;;;1.00;;
67655;SDS011;54443;51.464;-2.584;2022-07-06T12:35:54;1.45;;;1.00;;
67655;SDS011;54443;51.464;-2.584;2022-07-06T12:38:23;6.18;;;1.13;;
67655;SDS011;54443;51.464;-2.584;2022-07-06T12:40:49;1.48;;;1.10;;
67655;SDS011;54443;51.464;-2.584;2022-07-06T12:43:18;4.72;;;1.15;;
67655;SDS011;54443;51.464;-2.584;2022-07-06T12:45:59;4.18;;;1.20;;
67655;SDS011;54443;51.464;-2.584;2022-07-06T12:48:25;2.08;;;1.00;;
67655;SDS011;54443;51.464;-2.584;2022-07-06T12:50:50;2.80;;;0.95;;
67655;SDS011;54443;51.464;-2.584;2022-07-06T12:53:26;3.47;;;1.27;;
67655;SDS011;54443;51.464;-2.584;2022-07-06T12:56:08;1.45;;;1.10;;
67655;SDS011;54443;51.464;-2.584;2022-07-06T12:58:34;1.20;;;0.90;;
67655;SDS011;54443;51.464;-2.584;2022-07-06T13:00:59;2.40;;;1.10;;
67655;SDS011;54443;51.464;-2.584;2022-07-06T13:03:25;4.28;;;1.10;;
67655;SDS011;54443;51.464;-2.584;2022-07-06T13:05:50;1.45;;;1.13;;
67655;SDS011;54443;51.464;-2.584;2022-07-06T13:08:16;2.50;;;1.05;;
67655;SDS011;54443;51.464;-2.584;2022-07-06T13:10:41;1.83;;;1.15;;
67655;SDS011;54443;51.464;-2.584;2022-07-06T13:13:08;2.55;;;1.27;;
67655;SDS011;54443;51.464;-2.584;2022-07-06T13:15:34;6.78;;;1.45;;
67655;SDS011;54443;51.464;-2.584;2022-07-06T13:18:00;4.80;;;1.35;;
67655;SDS011;54443;51.464;-2.584;2022-07-06T13:20:25;2.58;;;1.30;;
67655;SDS011;54443;51.464;-2.584;2022-07-06T13:22:50;3.97;;;1.20;;
67655;SDS011;54443;51.464;-2.584;2022-07-06T13:25:16;4.82;;;1.30;;
67655;SDS011;54443;51.464;-2.584;2022-07-06T13:27:41;5.75;;;1.48;;
67655;SDS011;54443;51.464;-2.584;2022-07-06T13:30:07;5.78;;;1.27;;
67655;SDS011;54443;51.464;-2.584;2022-07-06T13:32:33;6.70;;;1.50;;
67655;SDS011;54443;51.464;-2.584;2022-07-06T13:34:58;8.20;;;1.27;;
67655;SDS011;54443;51.464;-2.584;2022-07-06T13:37:24;3.97;;;1.15;;
67655;SDS011;54443;51.464;-2.584;2022-07-06T13:39:49;4.90;;;1.23;;
67655;SDS011;54443;51.464;-2.584;2022-07-06T13:42:15;4.57;;;1.38;;
67655;SDS011;54443;51.464;-2.584;2022-07-06T13:44:40;4.03;;;1.00;;
67655;SDS011;54443;51.464;-2.584;2022-07-06T13:47:05;5.38;;;1.10;;
67655;SDS011;54443;51.464;-2.584;2022-07-06T13:49:31;4.13;;;1.20;;
67655;SDS011;54443;51.464;-2.584;2022-07-06T13:51:56;3.85;;;1.27;;
67655;SDS011;54443;51.464;-2.584;2022-07-06T13:54:28;1.45;;;1.20;;
67655;SDS011;54443;51.464;-2.584;2022-07-06T13:56:53;2.92;;;1.33;;
67655;SDS011;54443;51.464;-2.584;2022-07-06T13:59:19;5.25;;;1.33;;
67655;SDS011;54443;51.464;-2.584;2022-07-06T14:01:44;1.80;;;1.15;;
67655;SDS011;54443;51.464;-2.584;2022-07-06T14:04:09;2.15;;;1.55;;
67655;SDS011;54443;51.464;-2.584;2022-07-06T14:06:35;4.82;;;1.15;;
67655;SDS011;54443;51.464;-2.584;2022-07-06T14:09:01;6.20;;;1.20;;
67655;SDS011;54443;51.464;-2.584;2022-07-06T14:11:27;3.80;;;1.30;;
67655;SDS011;54443;51.464;-2.584;2022-07-06T14:13:52;4.07;;;1.08;;
67655;SDS011;54443;51.464;-2.584;2022-07-06T14:16:17;4.78;;;1.15;;
67655;SDS011;54443;51.464;-2.584;2022-07-06T14:18:43;5.22;;;1.45;;
67655;SDS011;54443;51.464;-2.584;2022-07-06T14:21:08;5.07;;;1.20;;
67655;SDS011;54443;51.464;-2.584;2022-07-06T14:23:34;4.28;;;1.30;;
67655;SDS011;54443;51.464;-2.584;2022-07-06T14:25:59;2.72;;;1.10;;
67655;SDS011;54443;51.464;-2.584;2022-07-06T14:28:25;3.80;;;1.17;;
67655;SDS011;54443;51.464;-2.584;2022-07-06T14:30:50;2.65;;;1.02;;
67655;SDS011;54443;51.464;-2.584;2022-07-06T14:33:16;1.85;;;1.30;;
67655;SDS011;54443;51.464;-2.584;2022-07-06T14:35:46;5.07;;;1.88;;
67655;SDS011;54443;51.464;-2.584;2022-07-06T14:38:13;3.03;;;1.20;;
67655;SDS011;54443;51.464;-2.584;2022-07-06T14:40:42;3.83;;;1.50;;
67655;SDS011;54443;51.464;-2.584;2022-07-06T14:43:08;4.60;;;1.30;;
67655;SDS011;54443;51.464;-2.584;2022-07-06T14:45:34;4.53;;;1.38;;
67655;SDS011;54443;51.464;-2.584;2022-07-06T14:47:59;4.05;;;1.33;;
67655;SDS011;54443;51.464;-2.584;2022-07-06T14:50:25;3.08;;;1.30;;